Time;durP1;ratioP1;P1;durP2;ratioP2;P2;SDS_P1;SDS_P2;PMS_P1;PMS_P2;Temp;Humidity;BMP_temperature;BMP_pressure;BME280_temperature;BME280_humidity;BME280_pressure;Samples;Min_cycle;Max_cycle;Signal;HPM_P1;HPM_P2
2024/01/12 00:02:19;;;;;;;52.30;23.33;;;;;;;;;;5037905;28;20340;-92
2024/01/12 00:04:45;;;;;;;43.47;21.63;;;;;;;;;;5037923;28;20260;-93
2024/01/12 00:07:11;;;;;;;46.70;23.87;;;;;;;;;;5040826;28;20049;-93
2024/01/12 00:09:37;;;;;;;43.77;22.80;;;;;;;;;;5045778;28;20025;-93
2024/01/12 00:12:03;;;;;;;46.33;22.00;;;;;;;;;;5027960;28;20351;-91
2024/01/12 00:14:29;;;;;;;65.60;24.17;;;;;;;;;;5068037;28;20279;-93
2024/01/12 00:16:55;;;;;;;47.63;23.43;;;;;;;;;;5042596;28;20267;-94
2024/01/12 00:19:21;;;;;;;55.87;25.37;;;;;;;;;;5064441;28;20280;-91
2024/01/12 00:21:47;;;;;;;55.10;24.13;;;;;;;;;;5061060;28;20657;-89
2024/01/12 00:24:13;;;;;;;54.77;25.23;;;;;;;;;;5042436;28;20280;-86
2024/01/12 00:26:39;;;;;;;48.87;25.13;;;;;;;;;;5032745;28;20272;-90
2024/01/12 00:29:05;;;;;;;55.57;25.57;;;;;;;;;;5029450;28;20260;-91
2024/01/12 00:31:33;;;;;;;52.50;24.13;;;;;;;;;;5059305;28;20272;-91
2024/01/12 00:34:01;;;;;;;46.30;24.43;;;;;;;;;;5027682;28;20041;-92
2024/01/12 00:36:27;;;;;;;53.43;23.77;;;;;;;;;;5029896;28;20288;-89
2024/01/12 00:38:53;;;;;;;47.60;23.90;;;;;;;;;;5028366;28;20338;-91
2024/01/12 00:41:19;;;;;;;61.43;24.27;;;;;;;;;;5033980;28;20108;-91
2024/01/12 00:43:45;;;;;;;55.57;25.53;;;;;;;;;;5033031;28;20048;-91
2024/01/12 00:46:11;;;;;;;53.87;23.80;;;;;;;;;;5041914;28;20068;-90
2024/01/12 00:48:37;;;;;;;51.30;25.50;;;;;;;;;;5027081;28;20037;-90
2024/01/12 00:51:03;;;;;;;53.83;24.40;;;;;;;;;;5026962;28;20566;-89
2024/01/12 00:53:29;;;;;;;60.20;25.63;;;;;;;;;;5031980;28;20124;-90
2024/01/12 00:55:55;;;;;;;57.57;26.90;;;;;;;;;;5028281;28;20335;-88
2024/01/12 00:58:21;;;;;;;49.47;24.70;;;;;;;;;;5028422;28;20060;-92
2024/01/12 01:00:47;;;;;;;47.67;25.27;;;;;;;;;;5027058;28;20443;-88
2024/01/12 01:03:13;;;;;;;55.53;26.10;;;;;;;;;;5028547;28;20029;-91
2024/01/12 01:05:39;;;;;;;51.67;24.70;;;;;;;;;;5027360;28;20022;-91
2024/01/12 01:08:05;;;;;;;50.20;24.77;;;;;;;;;;5029140;28;20025;-93
2024/01/12 01:10:31;;;;;;;55.90;25.10;;;;;;;;;;5039759;28;20291;-90
2024/01/12 01:12:57;;;;;;;48.17;24.07;;;;;;;;;;5044822;28;20277;-88
2024/01/12 01:15:23;;;;;;;49.63;24.47;;;;;;;;;;5039384;28;20033;-91
2024/01/12 01:17:50;;;;;;;51.63;24.60;;;;;;;;;;5028719;28;20977;-86
2024/01/12 01:20:16;;;;;;;50.73;24.13;;;;;;;;;;5044677;28;20030;-88
2024/01/12 01:22:42;;;;;;;57.83;24.90;;;;;;;;;;5026458;28;20356;-92
2024/01/12 01:25:10;;;;;;;58.47;25.00;;;;;;;;;;5031124;28;20304;-90
2024/01/12 01:27:36;;;;;;;52.37;25.23;;;;;;;;;;5029736;28;20331;-91
2024/01/12 01:30:03;;;;;;;54.73;26.27;;;;;;;;;;5029968;28;20605;-92
2024/01/12 01:32:29;;;;;;;47.47;24.73;;;;;;;;;;5042991;28;20095;-90
2024/01/12 01:34:55;;;;;;;53.30;24.87;;;;;;;;;;5027856;28;20277;-87
2024/01/12 01:37:21;;;;;;;55.03;24.90;;;;;;;;;;5028911;28;20026;-92
2024/01/12 01:39:47;;;;;;;54.83;26.73;;;;;;;;;;5042113;28;20123;-91
2024/01/12 01:42:12;;;;;;;54.90;25.33;;;;;;;;;;5028141;28;20049;-90
2024/01/12 01:44:38;;;;;;;51.83;25.73;;;;;;;;;;5042506;28;20157;-88
2024/01/12 01:47:05;;;;;;;57.53;27.53;;;;;;;;;;5024951;28;20022;-84
2024/01/12 01:49:31;;;;;;;59.37;26.03;;;;;;;;;;5026808;28;20041;-88
2024/01/12 01:51:57;;;;;;;47.13;24.37;;;;;;;;;;5026321;28;20280;-89
2024/01/12 01:54:23;;;;;;;54.93;26.43;;;;;;;;;;5041210;28;20260;-87
2024/01/12 01:56:49;;;;;;;49.40;25.27;;;;;;;;;;5028522;28;20365;-90
2024/01/12 01:59:15;;;;;;;50.93;24.33;;;;;;;;;;5023940;28;20018;-93
2024/01/12 02:01:44;;;;;;;51.60;25.00;;;;;;;;;;5029699;28;20283;-91
2024/01/12 02:04:11;;;;;;;54.37;25.60;;;;;;;;;;5039630;28;20299;-89
2024/01/12 02:06:37;;;;;;;55.50;25.27;;;;;;;;;;5058894;28;20319;-91
2024/01/12 02:09:04;;;;;;;53.17;26.27;;;;;;;;;;5031606;28;20745;-90
2024/01/12 02:11:30;;;;;;;50.87;25.33;;;;;;;;;;5044210;28;20733;-90
2024/01/12 02:13:56;;;;;;;57.87;27.40;;;;;;;;;;5032831;28;20314;-89
2024/01/12 02:16:22;;;;;;;48.17;26.13;;;;;;;;;;5030922;28;20333;-91
2024/01/12 02:18:48;;;;;;;53.93;26.50;;;;;;;;;;5031246;28;20280;-91
2024/01/12 02:21:14;;;;;;;52.47;25.63;;;;;;;;;;5033456;28;20668;-91
2024/01/12 02:23:40;;;;;;;54.97;26.13;;;;;;;;;;5046765;28;20030;-91
2024/01/12 02:26:06;;;;;;;58.20;27.80;;;;;;;;;;5032280;28;20527;-86
2024/01/12 02:28:32;;;;;;;56.63;27.53;;;;;;;;;;5029918;28;20446;-88
2024/01/12 02:31:00;;;;;;;54.33;26.80;;;;;;;;;;5030061;28;20273;-90
2024/01/12 02:33:26;;;;;;;60.50;27.97;;;;;;;;;;5034862;28;22202;-90
2024/01/12 02:35:52;;;;;;;56.17;26.97;;;;;;;;;;5030614;28;20272;-91
2024/01/12 02:38:18;;;;;;;61.10;26.83;;;;;;;;;;5026427;28;20782;-89
2024/01/12 02:40:44;;;;;;;57.57;25.93;;;;;;;;;;5048740;28;20279;-91
2024/01/12 02:43:10;;;;;;;68.17;29.40;;;;;;;;;;5036420;28;20037;-91
2024/01/12 02:45:36;;;;;;;54.93;29.23;;;;;;;;;;5034975;28;20660;-89
2024/01/12 02:48:04;;;;;;;54.50;28.10;;;;;;;;;;5031129;28;20022;-90
2024/01/12 02:50:30;;;;;;;56.93;26.83;;;;;;;;;;5044478;28;20269;-90
2024/01/12 02:52:56;;;;;;;57.40;29.70;;;;;;;;;;5032740;28;20316;-91
2024/01/12 02:55:22;;;;;;;61.90;27.63;;;;;;;;;;5035071;28;20128;-92
2024/01/12 02:57:48;;;;;;;59.33;28.77;;;;;;;;;;5033419;28;20434;-89
2024/01/12 03:00:14;;;;;;;57.03;28.23;;;;;;;;;;5030893;28;20280;-87
2024/01/12 03:02:40;;;;;;;57.20;28.07;;;;;;;;;;5042926;28;20030;-89
2024/01/12 03:05:07;;;;;;;56.07;29.20;;;;;;;;;;5065360;28;20295;-87
2024/01/12 03:07:33;;;;;;;65.30;29.00;;;;;;;;;;5028138;28;20280;-91
2024/01/12 03:09:59;;;;;;;64.07;30.10;;;;;;;;;;5028324;28;20364;-91
2024/01/12 03:12:25;;;;;;;58.90;29.53;;;;;;;;;;5032017;28;20021;-89
2024/01/12 03:14:51;;;;;;;61.63;30.20;;;;;;;;;;5035207;28;20291;-90
2024/01/12 03:17:17;;;;;;;63.70;29.90;;;;;;;;;;5030718;28;20033;-92
2024/01/12 03:19:43;;;;;;;64.87;31.97;;;;;;;;;;5032070;28;20029;-88
2024/01/12 03:22:09;;;;;;;68.00;31.07;;;;;;;;;;5032064;28;20484;-91
2024/01/12 03:24:35;;;;;;;61.30;30.30;;;;;;;;;;5040660;28;20075;-90
2024/01/12 03:27:01;;;;;;;64.80;31.17;;;;;;;;;;5031356;28;20924;-89
2024/01/12 03:29:27;;;;;;;70.47;32.43;;;;;;;;;;5033103;28;20284;-91
2024/01/12 03:31:53;;;;;;;65.37;31.53;;;;;;;;;;5031284;28;20488;-88
2024/01/12 03:34:19;;;;;;;82.57;35.00;;;;;;;;;;5030421;28;20040;-91
2024/01/12 03:36:45;;;;;;;81.27;37.73;;;;;;;;;;5026252;28;20331;-91
2024/01/12 03:39:11;;;;;;;89.77;37.23;;;;;;;;;;5034862;28;20087;-90
2024/01/12 03:41:37;;;;;;;80.00;37.27;;;;;;;;;;5034676;28;20654;-90
2024/01/12 03:44:03;;;;;;;84.30;38.27;;;;;;;;;;5028199;28;20071;-90
2024/01/12 03:46:29;;;;;;;91.83;38.90;;;;;;;;;;5043217;28;20039;-88
2024/01/12 03:48:56;;;;;;;92.30;38.40;;;;;;;;;;5028961;28;20276;-90
2024/01/12 03:51:22;;;;;;;97.20;38.37;;;;;;;;;;5032545;28;20442;-91
2024/01/12 03:53:48;;;;;;;98.03;39.93;;;;;;;;;;5039961;28;20276;-90
2024/01/12 03:56:14;;;;;;;94.57;40.73;;;;;;;;;;5044821;28;20283;-87
2024/01/12 03:58:41;;;;;;;98.20;41.97;;;;;;;;;;5028235;28;20338;-90
2024/01/12 04:01:10;;;;;;;103.70;43.63;;;;;;;;;;5041447;28;20068;-90
2024/01/12 04:03:36;;;;;;;106.33;43.20;;;;;;;;;;5033154;28;20296;-89
2024/01/12 04:06:01;;;;;;;103.97;43.23;;;;;;;;;;5026878;28;20286;-88
2024/01/12 04:08:30;;;;;;;102.90;43.27;;;;;;;;;;5031600;28;20272;-87
2024/01/12 04:10:56;;;;;;;100.90;42.93;;;;;;;;;;5032017;28;20025;-89
2024/01/12 04:13:24;;;;;;;114.13;45.30;;;;;;;;;;5030517;28;20264;-91
2024/01/12 04:15:51;;;;;;;103.80;44.80;;;;;;;;;;5043308;28;20284;-90
2024/01/12 04:18:17;;;;;;;102.00;42.50;;;;;;;;;;5024694;28;20319;-92
2024/01/12 04:20:43;;;;;;;103.30;42.77;;;;;;;;;;5037532;28;20871;-92
2024/01/12 04:23:09;;;;;;;101.67;42.80;;;;;;;;;;5031342;28;20331;-90
2024/01/12 04:25:35;;;;;;;116.13;45.20;;;;;;;;;;5028958;28;20053;-90
2024/01/12 04:28:01;;;;;;;115.60;45.30;;;;;;;;;;5043680;28;20037;-89
2024/01/12 04:30:27;;;;;;;106.30;41.37;;;;;;;;;;5032467;28;20476;-90
2024/01/12 04:32:53;;;;;;;119.47;47.67;;;;;;;;;;5032835;28;20089;-94
2024/01/12 04:35:19;;;;;;;120.23;47.33;;;;;;;;;;5027239;28;20030;-87
2024/01/12 04:37:48;;;;;;;116.00;45.47;;;;;;;;;;5045962;28;20774;-88
2024/01/12 04:40:14;;;;;;;110.60;46.67;;;;;;;;;;5030084;28;20303;-89
2024/01/12 04:42:40;;;;;;;111.97;46.60;;;;;;;;;;5050211;28;20441;-91
2024/01/12 04:45:06;;;;;;;114.27;45.87;;;;;;;;;;5036053;28;20334;-92
2024/01/12 04:47:32;;;;;;;123.80;47.80;;;;;;;;;;5042987;28;20490;-91
2024/01/12 04:49:58;;;;;;;123.77;47.30;;;;;;;;;;5036538;28;20303;-92
2024/01/12 04:52:26;;;;;;;130.27;50.87;;;;;;;;;;5036937;28;20264;-92
2024/01/12 04:54:52;;;;;;;122.40;46.20;;;;;;;;;;5038351;28;20029;-92
2024/01/12 04:57:18;;;;;;;133.73;51.63;;;;;;;;;;5062074;28;20596;-92
2024/01/12 04:59:44;;;;;;;147.63;51.43;;;;;;;;;;5036826;28;20025;-92
2024/01/12 05:02:10;;;;;;;130.87;50.73;;;;;;;;;;5036626;28;20076;-92
2024/01/12 05:04:36;;;;;;;143.97;52.93;;;;;;;;;;5039085;28;20315;-92
2024/01/12 05:07:02;;;;;;;142.80;51.83;;;;;;;;;;5035995;28;20033;-91
2024/01/12 05:09:30;;;;;;;146.20;53.20;;;;;;;;;;5038327;28;20446;-92
2024/01/12 05:11:57;;;;;;;155.83;56.10;;;;;;;;;;5032762;28;20033;-93
2024/01/12 05:14:26;;;;;;;148.63;53.37;;;;;;;;;;5034139;28;20265;-91
2024/01/12 05:16:52;;;;;;;148.43;53.53;;;;;;;;;;5057286;28;20256;-89
2024/01/12 05:19:18;;;;;;;152.53;54.33;;;;;;;;;;5028018;28;20256;-92
2024/01/12 05:21:44;;;;;;;156.13;54.70;;;;;;;;;;5060496;28;20411;-92
2024/01/12 05:24:10;;;;;;;154.07;51.40;;;;;;;;;;5071851;28;20071;-90
2024/01/12 05:26:36;;;;;;;145.57;54.10;;;;;;;;;;5034926;28;20047;-90
2024/01/12 05:29:08;;;;;;;147.90;54.00;;;;;;;;;;5066528;28;20894;-92
2024/01/12 05:31:34;;;;;;;149.77;54.43;;;;;;;;;;5034794;28;20268;-92
2024/01/12 05:34:00;;;;;;;152.97;52.57;;;;;;;;;;5036214;28;20291;-90
2024/01/12 05:36:26;;;;;;;138.50;52.43;;;;;;;;;;5034962;28;20037;-92
2024/01/12 05:38:51;;;;;;;153.63;53.13;;;;;;;;;;5071088;28;20075;-93
2024/01/12 05:41:17;;;;;;;137.37;53.00;;;;;;;;;;5038872;28;20036;-93
2024/01/12 05:43:43;;;;;;;154.30;54.83;;;;;;;;;;5036079;28;20047;-90
2024/01/12 05:46:09;;;;;;;143.87;55.00;;;;;;;;;;5037803;28;20026;-89
2024/01/12 05:48:35;;;;;;;138.53;52.47;;;;;;;;;;5064715;28;20446;-91
2024/01/12 05:51:04;;;;;;;136.60;53.83;;;;;;;;;;5038197;28;20033;-94
2024/01/12 05:53:30;;;;;;;151.17;53.63;;;;;;;;;;5047257;28;20041;-91
2024/01/12 05:55:56;;;;;;;134.90;53.90;;;;;;;;;;5037465;28;20268;-93
2024/01/12 05:58:22;;;;;;;142.87;52.07;;;;;;;;;;5045086;28;20030;-94
2024/01/12 06:00:48;;;;;;;148.10;51.67;;;;;;;;;;5060977;28;20299;-94
2024/01/12 06:03:16;;;;;;;137.47;53.20;;;;;;;;;;5039664;28;20633;-92
2024/01/12 06:05:45;;;;;;;150.27;52.87;;;;;;;;;;5075266;28;20287;-92
2024/01/12 06:08:11;;;;;;;142.40;49.67;;;;;;;;;;5041905;28;20264;-91
2024/01/12 06:10:37;;;;;;;133.80;50.07;;;;;;;;;;5077047;28;20274;-93
2024/01/12 06:13:04;;;;;;;140.47;50.77;;;;;;;;;;5039110;28;20021;-91
2024/01/12 06:15:30;;;;;;;141.87;51.50;;;;;;;;;;5040360;28;20045;-93
2024/01/12 06:17:58;;;;;;;136.50;49.30;;;;;;;;;;5035160;28;20799;-92
2024/01/12 06:20:24;;;;;;;144.03;50.37;;;;;;;;;;5035793;28;20033;-90
2024/01/12 06:22:50;;;;;;;148.03;51.43;;;;;;;;;;5030623;28;20299;-92
2024/01/12 06:25:16;;;;;;;161.07;54.03;;;;;;;;;;5030038;28;20291;-87
2024/01/12 06:27:42;;;;;;;178.10;54.10;;;;;;;;;;5029464;28;20287;-89
2024/01/12 06:30:09;;;;;;;166.47;53.77;;;;;;;;;;5032831;28;20279;-91
2024/01/12 06:32:37;;;;;;;160.00;52.47;;;;;;;;;;5033434;28;20327;-91
2024/01/12 06:35:04;;;;;;;170.30;51.50;;;;;;;;;;5031470;28;20360;-89
2024/01/12 06:37:32;;;;;;;158.23;49.13;;;;;;;;;;5044261;28;20343;-90
2024/01/12 06:39:58;;;;;;;184.53;54.90;;;;;;;;;;5032985;28;20279;-88
2024/01/12 06:42:24;;;;;;;187.20;55.87;;;;;;;;;;5026382;28;20756;-92
2024/01/12 06:44:50;;;;;;;167.63;54.47;;;;;;;;;;5028102;28;20280;-90
2024/01/12 06:47:16;;;;;;;177.87;51.20;;;;;;;;;;5026306;28;20041;-89
2024/01/12 06:49:43;;;;;;;173.70;53.07;;;;;;;;;;5043450;28;20355;-91
2024/01/12 06:52:09;;;;;;;172.27;52.70;;;;;;;;;;5043530;28;20310;-92
2024/01/12 06:54:35;;;;;;;175.63;52.57;;;;;;;;;;5035256;28;20280;-89
2024/01/12 06:57:01;;;;;;;169.50;52.00;;;;;;;;;;5033097;28;20740;-90
2024/01/12 06:59:27;;;;;;;153.60;50.67;;;;;;;;;;5033004;28;20272;-90
2024/01/12 07:01:56;;;;;;;165.33;48.90;;;;;;;;;;5031411;28;20026;-90
2024/01/12 07:04:24;;;;;;;164.53;52.20;;;;;;;;;;5031002;28;20037;-90
2024/01/12 07:06:52;;;;;;;180.17;50.33;;;;;;;;;;5065785;28;20349;-91
2024/01/12 07:09:18;;;;;;;158.43;48.77;;;;;;;;;;5032744;28;20276;-93
2024/01/12 07:11:44;;;;;;;173.97;50.80;;;;;;;;;;5047172;28;20276;-90
2024/01/12 07:14:11;;;;;;;181.07;52.10;;;;;;;;;;5031346;28;20287;-92
2024/01/12 07:16:37;;;;;;;178.83;54.07;;;;;;;;;;5031730;28;20033;-92
2024/01/12 07:19:04;;;;;;;178.63;53.10;;;;;;;;;;5028558;28;20277;-88
2024/01/12 07:21:30;;;;;;;190.37;54.27;;;;;;;;;;5061475;28;20372;-90
2024/01/12 07:23:56;;;;;;;178.87;54.77;;;;;;;;;;5034105;28;21214;-91
2024/01/12 07:26:22;;;;;;;174.87;56.53;;;;;;;;;;5025968;28;20280;-91
2024/01/12 07:28:48;;;;;;;170.70;52.70;;;;;;;;;;5029454;28;20283;-90
2024/01/12 07:31:14;;;;;;;172.87;52.20;;;;;;;;;;5031396;28;20272;-90
2024/01/12 07:33:40;;;;;;;183.50;56.07;;;;;;;;;;5060663;28;20034;-90
2024/01/12 07:36:07;;;;;;;173.87;53.63;;;;;;;;;;5045480;28;20294;-91
2024/01/12 07:38:33;;;;;;;181.53;54.83;;;;;;;;;;5028834;28;20732;-89
2024/01/12 07:40:59;;;;;;;195.70;55.07;;;;;;;;;;5030826;28;20366;-91
2024/01/12 07:43:43;;;;;;;185.47;55.57;;;;;;;;;;5032845;28;20377;-89
2024/01/12 07:46:18;;;;;;;186.60;52.53;;;;;;;;;;5016900;28;20044;-92
2024/01/12 07:48:44;;;;;;;183.95;56.40;;;;;;;;;;5028205;28;20273;-91
2024/01/12 07:51:10;;;;;;;185.80;55.33;;;;;;;;;;5029091;28;20363;-92
2024/01/12 07:53:36;;;;;;;193.13;55.93;;;;;;;;;;5043641;28;20758;-92
2024/01/12 07:56:02;;;;;;;180.33;51.37;;;;;;;;;;5044886;28;20269;-90
2024/01/12 07:58:28;;;;;;;202.33;57.23;;;;;;;;;;5031367;28;20079;-91
2024/01/12 08:00:54;;;;;;;184.00;53.43;;;;;;;;;;5028039;28;20438;-90
2024/01/12 08:03:20;;;;;;;199.70;55.50;;;;;;;;;;5041268;28;20033;-86
2024/01/12 08:05:46;;;;;;;189.17;54.60;;;;;;;;;;5029090;28;20576;-91
2024/01/12 08:08:12;;;;;;;167.13;48.27;;;;;;;;;;5029384;28;20033;-93
2024/01/12 08:10:38;;;;;;;183.47;51.10;;;;;;;;;;5026759;28;20125;-92
2024/01/12 08:13:04;;;;;;;173.27;51.90;;;;;;;;;;5030477;28;20669;-91
2024/01/12 08:15:30;;;;;;;198.83;52.40;;;;;;;;;;5027704;28;20033;-92
2024/01/12 08:17:56;;;;;;;187.60;54.40;;;;;;;;;;5061691;28;20419;-89
2024/01/12 08:20:22;;;;;;;160.47;51.53;;;;;;;;;;5029425;28;20327;-90
2024/01/12 08:22:48;;;;;;;182.40;53.97;;;;;;;;;;5043291;28;20044;-88
2024/01/12 08:25:14;;;;;;;168.27;50.67;;;;;;;;;;5044503;28;20403;-91
2024/01/12 08:27:40;;;;;;;171.77;54.73;;;;;;;;;;5031299;28;20291;-91
2024/01/12 08:30:10;;;;;;;178.53;49.37;;;;;;;;;;5032595;28;20346;-91
2024/01/12 08:32:36;;;;;;;165.67;49.37;;;;;;;;;;5042469;28;20099;-90
2024/01/12 08:35:02;;;;;;;177.63;49.37;;;;;;;;;;5047413;28;20292;-91
2024/01/12 08:37:28;;;;;;;159.47;47.57;;;;;;;;;;5026762;28;20283;-90
2024/01/12 08:39:53;;;;;;;165.60;50.87;;;;;;;;;;5027811;28;20288;-92
2024/01/12 08:42:19;;;;;;;176.87;52.47;;;;;;;;;;5023646;28;20442;-91
2024/01/12 08:44:45;;;;;;;167.73;50.93;;;;;;;;;;5030857;28;20025;-90
2024/01/12 08:47:12;;;;;;;179.17;49.77;;;;;;;;;;5044268;28;20312;-87
2024/01/12 08:49:38;;;;;;;174.83;49.77;;;;;;;;;;5035607;28;20029;-88
2024/01/12 08:52:04;;;;;;;168.87;52.27;;;;;;;;;;5028852;28;20276;-88
2024/01/12 08:54:30;;;;;;;145.70;44.87;;;;;;;;;;5032096;28;20025;-86
2024/01/12 08:56:56;;;;;;;136.40;45.50;;;;;;;;;;5030303;28;20272;-90
2024/01/12 08:59:22;;;;;;;135.67;42.17;;;;;;;;;;5029033;28;20279;-90
2024/01/12 09:01:48;;;;;;;143.03;43.00;;;;;;;;;;5061254;28;20026;-90
2024/01/12 09:04:14;;;;;;;133.83;44.03;;;;;;;;;;5064316;28;20060;-90
2024/01/12 09:06:42;;;;;;;124.00;39.13;;;;;;;;;;5027792;28;20298;-91
2024/01/12 09:09:08;;;;;;;128.17;39.87;;;;;;;;;;5027950;28;20272;-92
2024/01/12 09:11:35;;;;;;;116.40;37.20;;;;;;;;;;5032315;28;20277;-92
2024/01/12 09:14:01;;;;;;;109.90;35.80;;;;;;;;;;5047644;28;20335;-92
2024/01/12 09:16:27;;;;;;;109.67;35.67;;;;;;;;;;5033697;28;20288;-90
2024/01/12 09:18:53;;;;;;;111.73;38.27;;;;;;;;;;5034122;28;20041;-90
2024/01/12 09:21:21;;;;;;;108.80;37.13;;;;;;;;;;5060292;28;20045;-90
2024/01/12 09:23:47;;;;;;;103.80;38.93;;;;;;;;;;5043383;28;20099;-90
2024/01/12 09:26:16;;;;;;;116.63;38.53;;;;;;;;;;5030898;28;20280;-90
2024/01/12 09:28:42;;;;;;;106.63;36.27;;;;;;;;;;5033734;28;20276;-92
2024/01/12 09:31:08;;;;;;;96.47;34.70;;;;;;;;;;5034197;28;20721;-91
2024/01/12 09:33:34;;;;;;;107.77;37.47;;;;;;;;;;5034036;28;20732;-92
2024/01/12 09:36:03;;;;;;;105.40;34.27;;;;;;;;;;5041672;28;20349;-93
2024/01/12 09:38:29;;;;;;;99.40;34.00;;;;;;;;;;5047578;28;20315;-87
2024/01/12 09:40:58;;;;;;;102.67;35.33;;;;;;;;;;5029034;28;20283;-93
2024/01/12 09:43:24;;;;;;;103.00;36.47;;;;;;;;;;5032384;28;20351;-89
2024/01/12 09:45:51;;;;;;;90.10;33.53;;;;;;;;;;5033459;28;20272;-89
2024/01/12 09:48:17;;;;;;;106.03;36.30;;;;;;;;;;5047193;28;20280;-88
2024/01/12 09:50:47;;;;;;;101.27;34.87;;;;;;;;;;5035267;28;20276;-90
2024/01/12 09:53:13;;;;;;;98.77;32.23;;;;;;;;;;5048676;28;20431;-87
2024/01/12 09:55:39;;;;;;;85.40;32.33;;;;;;;;;;5062680;28;20291;-89
2024/01/12 09:58:09;;;;;;;107.97;33.93;;;;;;;;;;5045961;28;20281;-88
2024/01/12 10:00:37;;;;;;;104.57;35.07;;;;;;;;;;5049544;28;20359;-88
2024/01/12 10:03:04;;;;;;;105.07;34.53;;;;;;;;;;5044504;28;20354;-90
2024/01/12 10:05:31;;;;;;;83.80;32.13;;;;;;;;;;5028092;28;20379;-91
2024/01/12 10:07:57;;;;;;;89.07;33.03;;;;;;;;;;5047619;28;20290;-90
2024/01/12 10:10:23;;;;;;;93.47;31.30;;;;;;;;;;5032229;28;20310;-89
2024/01/12 10:12:52;;;;;;;99.47;33.07;;;;;;;;;;5043508;28;20327;-92
2024/01/12 10:15:19;;;;;;;98.80;35.07;;;;;;;;;;5062460;28;20276;-89
2024/01/12 10:17:45;;;;;;;84.93;31.10;;;;;;;;;;5044107;28;20296;-90
2024/01/12 10:20:11;;;;;;;92.77;31.63;;;;;;;;;;5032396;28;20269;-89
2024/01/12 10:22:37;;;;;;;81.77;31.53;;;;;;;;;;5067152;28;20037;-90
2024/01/12 10:25:04;;;;;;;87.67;30.20;;;;;;;;;;5051186;28;20299;-88
2024/01/12 10:27:30;;;;;;;92.67;31.83;;;;;;;;;;5054820;28;20280;-90
2024/01/12 10:29:57;;;;;;;84.00;31.50;;;;;;;;;;5040629;28;20284;-89
2024/01/12 10:32:23;;;;;;;84.07;30.03;;;;;;;;;;5037517;28;20280;-85
2024/01/12 10:34:52;;;;;;;90.43;33.90;;;;;;;;;;5054773;28;20276;-87
2024/01/12 10:37:19;;;;;;;95.83;32.47;;;;;;;;;;5055832;28;20314;-87
2024/01/12 10:39:46;;;;;;;96.63;33.33;;;;;;;;;;5043629;28;20744;-90
2024/01/12 10:42:14;;;;;;;91.70;32.57;;;;;;;;;;5061045;28;20276;-90
2024/01/12 10:44:41;;;;;;;102.87;35.53;;;;;;;;;;5044655;28;20261;-93
2024/01/12 10:47:11;;;;;;;96.10;32.30;;;;;;;;;;5082122;28;20280;-89
2024/01/12 10:49:45;;;;;;;107.93;33.83;;;;;;;;;;5049904;28;20719;-92
2024/01/12 10:52:11;;;;;;;94.07;30.40;;;;;;;;;;5047241;28;20283;-93
2024/01/12 10:54:48;;;;;;;99.33;33.53;;;;;;;;;;5048608;28;20264;-91
2024/01/12 10:57:20;;;;;;;87.70;32.20;;;;;;;;;;5048846;28;20029;-92
2024/01/12 10:59:49;;;;;;;99.93;33.00;;;;;;;;;;5050387;28;20272;-92
2024/01/12 11:02:15;;;;;;;93.50;30.97;;;;;;;;;;5044128;28;20121;-92
2024/01/12 11:04:42;;;;;;;95.70;31.07;;;;;;;;;;5083197;28;20267;-92
2024/01/12 11:07:08;;;;;;;99.03;33.37;;;;;;;;;;5069384;28;20283;-93
2024/01/12 11:09:37;;;;;;;94.27;29.33;;;;;;;;;;5062328;28;20406;-92
2024/01/12 11:12:12;;;;;;;88.07;29.03;;;;;;;;;;5050609;28;20253;-91
2024/01/12 11:14:42;;;;;;;90.60;30.50;;;;;;;;;;5040096;28;20279;-93
2024/01/12 11:17:08;;;;;;;86.27;30.83;;;;;;;;;;5041074;28;20280;-93
2024/01/12 11:19:34;;;;;;;92.60;31.87;;;;;;;;;;5039461;28;20727;-92
2024/01/12 11:22:07;;;;;;;75.80;26.67;;;;;;;;;;5073532;28;20279;-93
2024/01/12 11:24:35;;;;;;;78.07;27.27;;;;;;;;;;5041929;28;20276;-92
2024/01/12 11:27:02;;;;;;;75.33;29.10;;;;;;;;;;5040330;28;20249;-93
2024/01/12 11:29:32;;;;;;;70.33;25.13;;;;;;;;;;5066709;28;20269;-92
2024/01/12 11:32:03;;;;;;;56.63;21.87;;;;;;;;;;5053551;28;20287;-92
2024/01/12 11:34:33;;;;;;;62.43;24.20;;;;;;;;;;5047895;28;20276;-92
2024/01/12 11:37:00;;;;;;;57.93;23.20;;;;;;;;;;5073145;28;20319;-93
2024/01/12 11:39:26;;;;;;;61.00;24.80;;;;;;;;;;5041019;28;20315;-93
2024/01/12 11:41:56;;;;;;;65.93;27.03;;;;;;;;;;5044151;28;20307;-92
2024/01/12 11:44:22;;;;;;;72.53;26.33;;;;;;;;;;5070194;28;20367;-93
2024/01/12 11:46:48;;;;;;;62.77;26.73;;;;;;;;;;5068504;28;20265;-93
2024/01/12 11:49:16;;;;;;;65.87;25.20;;;;;;;;;;5039156;28;20584;-93
2024/01/12 11:51:43;;;;;;;61.73;25.97;;;;;;;;;;5023646;28;20359;-93
2024/01/12 11:54:09;;;;;;;71.17;27.60;;;;;;;;;;5039661;28;20276;-93
2024/01/12 11:56:35;;;;;;;61.23;24.20;;;;;;;;;;5046336;28;20593;-93
2024/01/12 11:59:01;;;;;;;60.80;23.83;;;;;;;;;;5038035;28;20279;-92
2024/01/12 12:01:27;;;;;;;60.23;22.73;;;;;;;;;;5032655;28;20038;-92
2024/01/12 12:03:54;;;;;;;61.20;24.57;;;;;;;;;;5038856;28;20314;-92
2024/01/12 12:06:20;;;;;;;68.27;25.37;;;;;;;;;;5038705;28;20604;-92
2024/01/12 12:08:48;;;;;;;58.47;23.17;;;;;;;;;;5038458;28;20300;-93
2024/01/12 12:11:15;;;;;;;61.60;24.43;;;;;;;;;;5037379;28;20291;-92
2024/01/12 12:13:41;;;;;;;55.03;22.27;;;;;;;;;;5038262;28;20666;-89
2024/01/12 12:16:08;;;;;;;61.17;22.33;;;;;;;;;;5065265;28;20264;-91
2024/01/12 12:18:34;;;;;;;55.93;22.00;;;;;;;;;;5035391;28;20284;-89
2024/01/12 12:21:03;;;;;;;50.03;20.03;;;;;;;;;;5041972;28;20319;-91
2024/01/12 12:23:30;;;;;;;48.23;20.33;;;;;;;;;;5034350;28;20292;-91
2024/01/12 12:25:56;;;;;;;52.60;20.03;;;;;;;;;;5061315;28;20363;-91
2024/01/12 12:28:25;;;;;;;51.37;21.97;;;;;;;;;;5063298;28;20287;-89
2024/01/12 12:30:57;;;;;;;49.67;21.10;;;;;;;;;;5043393;28;20272;-88
2024/01/12 12:33:26;;;;;;;48.47;20.30;;;;;;;;;;5027454;28;20290;-91
2024/01/12 12:36:02;;;;;;;69.37;23.10;;;;;;;;;;5032497;28;20052;-89
2024/01/12 12:38:28;;;;;;;52.23;20.80;;;;;;;;;;5038001;28;20272;-86
2024/01/12 12:40:54;;;;;;;43.83;19.37;;;;;;;;;;5051253;28;20287;-89
2024/01/12 12:43:21;;;;;;;57.23;21.10;;;;;;;;;;5036824;28;20364;-84
2024/01/12 12:45:51;;;;;;;60.30;22.10;;;;;;;;;;5053996;28;20272;-88
2024/01/12 12:48:17;;;;;;;60.50;22.43;;;;;;;;;;5053070;28;20308;-88
2024/01/12 12:50:43;;;;;;;51.40;21.63;;;;;;;;;;5054924;28;20273;-86
2024/01/12 12:53:14;;;;;;;56.47;21.93;;;;;;;;;;5054776;28;20276;-91
2024/01/12 12:55:41;;;;;;;58.80;23.20;;;;;;;;;;5056791;28;20283;-87
2024/01/12 12:58:07;;;;;;;63.53;23.57;;;;;;;;;;5034006;28;20313;-92
2024/01/12 13:00:33;;;;;;;56.57;23.07;;;;;;;;;;5031789;28;20354;-91
2024/01/12 13:02:59;;;;;;;59.73;24.40;;;;;;;;;;5034783;28;20283;-90
2024/01/12 13:05:25;;;;;;;61.57;23.30;;;;;;;;;;5033489;28;20384;-90
2024/01/12 13:07:51;;;;;;;62.97;24.80;;;;;;;;;;5045223;28;20654;-92
2024/01/12 13:10:17;;;;;;;76.70;24.77;;;;;;;;;;5030215;28;20118;-92
2024/01/12 13:12:43;;;;;;;64.27;24.60;;;;;;;;;;5026812;28;20090;-90
2024/01/12 13:15:09;;;;;;;71.73;25.33;;;;;;;;;;5029686;28;20269;-89
2024/01/12 13:17:35;;;;;;;72.57;26.27;;;;;;;;;;5066180;28;20287;-89
2024/01/12 13:20:03;;;;;;;69.20;24.97;;;;;;;;;;5069214;28;20288;-89
2024/01/12 13:22:29;;;;;;;71.13;25.57;;;;;;;;;;5068738;28;20390;-86
2024/01/12 13:24:59;;;;;;;76.10;25.07;;;;;;;;;;5032569;28;20287;-92
2024/01/12 13:27:25;;;;;;;76.87;25.97;;;;;;;;;;5031548;28;20582;-90
2024/01/12 13:29:51;;;;;;;71.20;25.70;;;;;;;;;;5050976;28;20276;-89
2024/01/12 13:32:17;;;;;;;79.90;27.77;;;;;;;;;;5067060;28;20049;-89
2024/01/12 13:34:43;;;;;;;72.13;26.40;;;;;;;;;;5054763;28;20964;-89
2024/01/12 13:37:09;;;;;;;74.87;27.17;;;;;;;;;;5050785;28;20287;-89
2024/01/12 13:39:35;;;;;;;81.43;27.27;;;;;;;;;;5033168;28;20335;-91
2024/01/12 13:42:02;;;;;;;80.63;28.23;;;;;;;;;;5032998;28;20093;-90
2024/01/12 13:44:28;;;;;;;74.63;27.23;;;;;;;;;;5036547;28;20047;-86
2024/01/12 13:46:54;;;;;;;78.60;24.60;;;;;;;;;;5036747;28;20284;-88
2024/01/12 13:49:20;;;;;;;78.30;26.97;;;;;;;;;;5057347;28;20268;-88
2024/01/12 13:51:49;;;;;;;83.17;29.50;;;;;;;;;;5039764;28;20303;-88
2024/01/12 13:54:16;;;;;;;84.27;28.23;;;;;;;;;;5050205;28;20311;-92
2024/01/12 13:56:42;;;;;;;86.03;28.47;;;;;;;;;;5036123;28;20330;-92
2024/01/12 13:59:08;;;;;;;82.60;26.17;;;;;;;;;;5028480;28;20288;-89
2024/01/12 14:01:34;;;;;;;80.37;27.60;;;;;;;;;;5041736;28;20756;-90
2024/01/12 14:04:01;;;;;;;88.60;26.63;;;;;;;;;;5049128;28;20284;-86
2024/01/12 14:06:27;;;;;;;71.40;27.80;;;;;;;;;;5061737;28;20300;-90
2024/01/12 14:08:53;;;;;;;76.13;25.30;;;;;;;;;;5027707;28;20296;-89